Time;durP1;ratioP1;P1;durP2;ratioP2;P2;SDS_P1;SDS_P2;PMS_P1;PMS_P2;Temp;Humidity;BMP_temperature;BMP_pressure;BME280_temperature;BME280_humidity;BME280_pressure;Samples;Min_cycle;Max_cycle;Signal;HPM_P1;HPM_P2
2022/02/20 00:02:03;;;;;;;4.30;1.30;;;;;;;2.33;58.18;98404.95;104996;1272;61019;-23
2022/02/20 00:04:32;;;;;;;6.70;1.60;;;;;;;2.40;57.87;98413.75;104851;1271;74493;-23
2022/02/20 00:07:00;;;;;;;3.60;1.30;;;;;;;2.39;58.01;98409.20;105033;1272;76423;-24
2022/02/20 00:09:29;;;;;;;2.70;1.30;;;;;;;2.34;58.26;98420.27;105032;1271;73372;-23
2022/02/20 00:11:58;;;;;;;4.30;1.70;;;;;;;2.28;58.66;98420.61;104974;1272;61033;-23
2022/02/20 00:14:26;;;;;;;1.60;0.80;;;;;;;2.26;58.66;98434.92;104983;1271;61180;-23
2022/02/20 00:16:54;;;;;;;2.90;1.20;;;;;;;2.28;58.37;98419.91;105170;1271;75234;-23
2022/02/20 00:19:23;;;;;;;2.10;1.20;;;;;;;2.31;58.25;98419.61;104954;1273;75944;-23
2022/02/20 00:21:52;;;;;;;3.80;1.40;;;;;;;2.31;58.44;98422.35;105006;1271;73406;-23
2022/02/20 00:24:21;;;;;;;4.30;1.70;;;;;;;2.28;58.51;98430.20;104935;1271;61149;-23
2022/02/20 00:26:50;;;;;;;2.30;1.30;;;;;;;2.14;59.20;98434.45;104775;1272;61791;-23
2022/02/20 00:29:20;;;;;;;2.70;1.00;;;;;;;2.16;58.87;98425.95;105026;1271;75866;-23
2022/02/20 00:31:48;;;;;;;1.90;1.00;;;;;;;2.19;58.85;98415.30;104748;1273;75176;-23
2022/02/20 00:34:17;;;;;;;9.60;1.40;;;;;;;2.17;59.03;98443.17;104762;1273;74374;-23
2022/02/20 00:36:46;;;;;;;2.10;1.20;;;;;;;2.13;59.16;98444.95;104766;1271;61145;-23
2022/02/20 00:39:14;;;;;;;2.50;1.00;;;;;;;2.18;58.77;98440.35;104984;1271;63673;-23
2022/02/20 00:41:43;;;;;;;4.20;1.40;;;;;;;2.16;58.87;98440.16;104791;1271;75593;-22
2022/02/20 00:44:11;;;;;;;6.20;1.50;;;;;;;2.12;59.21;98452.87;105064;1271;75931;-23
2022/02/20 00:46:40;;;;;;;4.30;1.20;;;;;;;2.12;59.13;98449.08;105145;1271;74157;-24
2022/02/20 00:49:08;;;;;;;2.30;0.90;;;;;;;2.13;59.08;98455.36;104837;1273;61153;-23
2022/02/20 00:51:38;;;;;;;2.70;0.90;;;;;;;2.13;59.24;98449.74;105209;1272;61024;-24
2022/02/20 00:54:09;;;;;;;1.90;1.20;;;;;;;2.07;59.56;98468.91;105112;1272;75576;-24
2022/02/20 00:56:38;;;;;;;4.20;1.30;;;;;;;1.99;59.80;98456.52;104828;1273;75164;-24
2022/02/20 00:59:07;;;;;;;3.20;1.30;;;;;;;1.95;59.94;98462.52;104803;1273;73170;-25
2022/02/20 01:01:35;;;;;;;1.60;0.90;;;;;;;1.98;60.02;98469.57;104822;1272;61142;-23
2022/02/20 01:04:03;;;;;;;3.90;1.50;;;;;;;1.97;59.95;98462.96;104719;1271;61215;-22
2022/02/20 01:06:33;;;;;;;3.60;1.30;;;;;;;1.96;60.19;98474.48;104825;1271;75556;-22
2022/02/20 01:09:01;;;;;;;2.70;1.10;;;;;;;1.93;60.51;98471.89;104206;1273;586147;-22
2022/02/20 01:11:31;;;;;;;3.00;1.20;;;;;;;1.90;60.57;98477.34;104818;1271;74315;-22
2022/02/20 01:13:59;;;;;;;1.80;1.20;;;;;;;1.90;60.64;98471.67;104720;1271;61103;-22
2022/02/20 01:16:28;;;;;;;5.30;1.40;;;;;;;1.96;61.01;98486.95;104729;1273;62353;-22
2022/02/20 01:18:56;;;;;;;6.40;0.90;;;;;;;1.98;60.80;98476.56;104819;1272;75525;-22
2022/02/20 01:21:25;;;;;;;3.90;1.40;;;;;;;1.92;61.16;98484.11;104813;1271;76365;-22
2022/02/20 01:23:55;;;;;;;3.90;1.30;;;;;;;1.89;61.30;98486.34;104814;1271;72992;-22
2022/02/20 01:26:23;;;;;;;4.80;2.00;;;;;;;1.88;61.37;98490.98;104976;1273;61201;-22
2022/02/20 01:28:52;;;;;;;3.90;1.30;;;;;;;1.82;61.39;98486.69;105137;1273;61097;-24
2022/02/20 01:31:21;;;;;;;5.00;1.40;;;;;;;1.72;61.44;98483.98;105090;1271;75699;-24
2022/02/20 01:33:50;;;;;;;7.00;1.50;;;;;;;1.71;61.41;98477.84;104809;1271;76033;-24
2022/02/20 01:36:18;;;;;;;2.50;1.10;;;;;;;1.67;61.63;98481.19;105052;1271;73571;-24
2022/02/20 01:38:49;;;;;;;8.40;1.50;;;;;;;1.61;61.81;98494.63;104903;1271;61875;-22
2022/02/20 01:41:20;;;;;;;5.10;1.50;;;;;;;1.54;62.51;98500.34;104820;1271;61114;-22
2022/02/20 01:43:53;;;;;;;4.70;1.60;;;;;;;1.49;62.47;98493.73;104738;1271;75570;-22
2022/02/20 01:46:23;;;;;;;3.60;1.20;;;;;;;1.48;62.72;98495.34;104768;1271;75007;-24
2022/02/20 01:48:51;;;;;;;2.80;1.30;;;;;;;1.47;62.84;98505.29;104736;1271;74841;-22
2022/02/20 01:51:20;;;;;;;5.60;1.60;;;;;;;1.43;62.81;98501.39;104806;1272;61156;-23
2022/02/20 01:53:51;;;;;;;2.90;1.20;;;;;;;1.39;63.30;98504.38;104872;1271;61124;-23
2022/02/20 01:56:20;;;;;;;3.10;1.50;;;;;;;1.36;63.10;98506.05;104972;1273;72925;-22
2022/02/20 01:59:14;;;;;;;6.10;1.90;;;;;;;1.31;63.50;98509.89;104656;1271;75034;-23
2022/02/20 02:02:03;;;;;;;3.50;1.60;;;;;;;1.27;63.69;98513.71;104828;1271;72600;-23
2022/02/20 02:04:39;;;;;;;3.20;1.30;;;;;;;1.24;63.97;98510.46;104885;1271;61072;-22
2022/02/20 02:07:09;;;;;;;2.50;1.10;;;;;;;1.21;63.90;98516.74;105043;1271;61868;-23
2022/02/20 02:09:45;;;;;;;3.70;1.10;;;;;;;1.14;64.14;98515.58;104747;1273;74619;-22
2022/02/20 02:12:41;;;;;;;8.50;1.50;;;;;;;1.13;64.51;98517.33;104722;1271;75936;-23
2022/02/20 02:15:11;;;;;;;4.90;1.60;;;;;;;1.08;64.64;98511.77;104811;1271;74506;-23
2022/02/20 02:18:05;;;;;;;4.10;1.60;;;;;;;1.13;64.77;98515.26;104729;1273;61807;-22
2022/02/20 02:20:56;;;;;;;3.90;1.20;;;;;;;1.71;62.79;98516.34;104631;1271;61116;-23
2022/02/20 02:23:44;;;;;;;1.30;0.60;;;;;;;1.92;62.19;98520.73;104778;1271;73729;-22
2022/02/20 02:26:31;;;;;;;2.30;1.20;;;;;;;1.85;62.37;98522.84;104817;1271;74765;-22
2022/02/20 02:29:15;;;;;;;4.70;1.10;;;;;;;1.73;62.64;98525.66;104733;1273;74248;-23
2022/02/20 02:31:43;;;;;;;3.00;1.60;;;;;;;1.63;62.95;98514.58;104804;1273;61300;-23
2022/02/20 02:34:12;;;;;;;2.70;1.30;;;;;;;1.59;63.15;98521.27;104809;1273;61907;-23
2022/02/20 02:36:46;;;;;;;3.30;1.30;;;;;;;1.55;63.28;98523.01;104826;1273;75572;-23
2022/02/20 02:39:14;;;;;;;;;;;;;;;1.53;63.31;98524.85;104647;1271;75960;-23
2022/02/20 02:41:42;;;;;;;5.00;1.80;;;;;;;1.43;63.77;98527.42;104692;1273;74457;-23
2022/02/20 02:44:10;;;;;;;4.00;1.60;;;;;;;1.35;63.95;98524.42;104847;1272;61172;-23
2022/02/20 02:46:39;;;;;;;4.80;1.50;;;;;;;1.24;64.11;98524.27;104780;1271;61053;-23
2022/02/20 02:49:09;;;;;;;5.90;2.10;;;;;;;1.17;64.32;98519.70;104835;1271;75528;-23
2022/02/20 02:51:39;;;;;;;4.90;1.40;;;;;;;1.07;64.74;98526.20;105099;1273;75785;-23
2022/02/20 02:54:08;;;;;;;3.20;1.60;;;;;;;1.02;65.18;98523.15;104764;1272;73050;-23
2022/02/20 02:56:38;;;;;;;11.40;2.10;;;;;;;0.96;65.21;98524.67;104728;1273;61120;-23
2022/02/20 02:59:07;;;;;;;3.30;1.40;;;;;;;0.87;65.41;98524.42;104727;1273;61168;-23
2022/02/20 03:01:35;;;;;;;6.40;1.80;;;;;;;0.89;65.32;98527.25;104812;1271;74698;-23
2022/02/20 03:04:06;;;;;;;2.00;0.80;;;;;;;0.89;65.62;98532.68;104782;1271;75970;-23
2022/02/20 03:06:34;;;;;;;2.90;1.10;;;;;;;1.46;64.03;98541.47;104820;1273;74780;-22
2022/02/20 03:09:08;;;;;;;3.10;1.50;;;;;;;1.87;62.45;98541.35;104777;1272;61126;-22
2022/02/20 03:11:38;;;;;;;3.40;1.30;;;;;;;1.86;62.13;98540.20;104765;1271;61140;-23
2022/02/20 03:14:09;;;;;;;3.70;1.50;;;;;;;1.67;62.59;98544.29;104792;1271;77178;-23
2022/02/20 03:16:38;;;;;;;2.40;1.20;;;;;;;1.52;63.16;98547.30;104775;1273;75904;-23
2022/02/20 03:19:08;;;;;;;5.50;1.30;;;;;;;1.29;63.90;98546.75;104787;1271;74431;-22
2022/02/20 03:21:37;;;;;;;3.40;1.30;;;;;;;1.10;64.15;98551.67;104944;1271;61134;-22
2022/02/20 03:24:05;;;;;;;3.40;1.40;;;;;;;0.93;64.54;98556.27;104767;1273;61242;-24
2022/02/20 03:26:35;;;;;;;5.60;1.80;;;;;;;0.75;65.09;98557.82;104795;1271;74510;-23
2022/02/20 03:29:04;;;;;;;2.90;0.90;;;;;;;0.57;65.63;98557.50;104753;1271;73219;-24
2022/02/20 03:31:33;;;;;;;4.60;1.30;;;;;;;0.38;66.05;98555.84;104801;1271;74449;-24
2022/02/20 03:34:03;;;;;;;2.30;1.00;;;;;;;0.25;66.47;98559.02;104757;1271;61246;-23
2022/02/20 03:36:34;;;;;;;3.50;1.40;;;;;;;0.10;67.26;98557.79;104820;1271;61067;-23
2022/02/20 03:39:09;;;;;;;5.40;1.70;;;;;;;-0.01;67.65;98558.34;104807;1271;74555;-23
2022/02/20 03:41:39;;;;;;;2.20;1.20;;;;;;;-0.12;67.75;98559.16;104793;1271;74998;-23
2022/02/20 03:44:08;;;;;;;3.30;1.20;;;;;;;-0.18;67.59;98560.08;104801;1271;73537;-22
2022/02/20 03:46:50;;;;;;;2.90;1.20;;;;;;;-0.24;67.84;98555.42;104763;1271;61032;-23
2022/02/20 03:49:19;;;;;;;5.20;1.50;;;;;;;-0.27;67.91;98557.60;104717;1272;61140;-23
2022/02/20 03:52:12;;;;;;;1.90;0.90;;;;;;;-0.21;67.66;98557.19;104633;1271;75794;-23
2022/02/20 03:54:46;;;;;;;1.60;0.70;;;;;;;0.54;66.09;98563.42;104824;1272;75749;-23
2022/02/20 03:57:14;;;;;;;4.10;1.40;;;;;;;1.25;63.89;98561.50;104716;1271;74228;-23
2022/02/20 04:00:21;;;;;;;2.70;1.20;;;;;;;1.34;62.47;98568.92;104777;1270;60973;-22
2022/02/20 04:03:15;;;;;;;5.00;1.30;;;;;;;1.12;62.94;98565.91;104740;1271;61172;-22
2022/02/20 04:05:47;;;;;;;3.10;1.20;;;;;;;0.91;63.52;98567.15;104850;1271;74881;-23
2022/02/20 04:08:15;;;;;;;5.60;1.90;;;;;;;0.71;63.91;98564.86;104804;1271;76016;-24
2022/02/20 04:10:47;;;;;;;2.90;1.20;;;;;;;0.51;63.86;98568.54;104909;1271;74249;-24
2022/02/20 04:13:22;;;;;;;3.70;2.00;;;;;;;0.33;64.37;98565.11;104812;1271;61743;-23
2022/02/20 04:15:52;;;;;;;6.50;2.70;;;;;;;0.19;64.50;98560.83;104889;1271;61502;-23
2022/02/20 04:18:23;;;;;;;6.00;2.40;;;;;;;0.09;64.98;98559.73;104808;1271;75747;-23
2022/02/20 04:21:12;;;;;;;6.30;1.70;;;;;;;0.03;64.89;98556.42;104956;1271;75014;-23
2022/02/20 04:23:41;;;;;;;2.30;1.40;;;;;;;-0.04;65.01;98557.23;104864;1271;74321;-24
2022/02/20 04:26:10;;;;;;;4.00;2.50;;;;;;;-0.11;65.09;98555.71;104808;1271;61028;-23
2022/02/20 04:28:40;;;;;;;2.70;1.70;;;;;;;-0.18;65.22;98556.68;104769;1271;61093;-23
2022/02/20 04:31:09;;;;;;;3.30;1.70;;;;;;;-0.20;65.77;98555.23;104807;1271;74119;-23
2022/02/20 04:33:38;;;;;;;4.20;1.40;;;;;;;-0.22;65.80;98560.95;104860;1271;75756;-24
2022/02/20 04:36:06;;;;;;;4.50;1.30;;;;;;;-0.25;65.86;98559.94;104628;1271;74268;-23
2022/02/20 04:38:36;;;;;;;4.10;1.70;;;;;;;-0.31;66.49;98561.90;104768;1272;61087;-21
2022/02/20 04:41:08;;;;;;;2.40;1.40;;;;;;;-0.21;66.51;98554.07;104831;1271;61036;-22
2022/02/20 04:43:39;;;;;;;3.80;1.20;;;;;;;0.43;64.64;98554.42;104804;1271;75578;-23
2022/02/20 04:46:09;;;;;;;2.70;0.80;;;;;;;0.72;63.48;98554.39;104877;1271;74946;-25
2022/02/20 04:48:37;;;;;;;3.90;1.40;;;;;;;0.71;63.13;98553.73;104828;1272;74148;-25
2022/02/20 04:51:10;;;;;;;3.00;1.40;;;;;;;0.61;63.18;98555.09;104766;1271;61251;-26
2022/02/20 04:53:39;;;;;;;3.70;1.40;;;;;;;0.41;63.22;98557.06;104752;1273;61125;-24
2022/02/20 04:56:07;;;;;;;3.60;1.20;;;;;;;0.15;63.96;98563.88;104747;1272;73164;-24
2022/02/20 04:58:38;;;;;;;3.80;1.60;;;;;;;-0.07;64.30;98566.11;104857;1271;75832;-24
2022/02/20 05:01:15;;;;;;;4.10;1.70;;;;;;;-0.29;64.99;98569.46;104933;1271;73075;-24
2022/02/20 05:04:13;;;;;;;4.30;1.30;;;;;;;-0.48;65.63;98570.96;104944;1271;61653;-24
2022/02/20 05:06:45;;;;;;;1.80;1.10;;;;;;;-0.61;65.97;98567.46;104866;1271;61182;-25
2022/02/20 05:09:19;;;;;;;5.80;1.80;;;;;;;-0.73;67.02;98566.09;104825;1273;74086;-23
2022/02/20 05:11:58;;;;;;;4.20;1.70;;;;;;;-0.79;66.90;98568.05;104792;1271;75335;-23
2022/02/20 05:14:27;;;;;;;3.10;1.40;;;;;;;-0.90;67.55;98567.46;104808;1271;73214;-23
2022/02/20 05:16:58;;;;;;;3.90;1.50;;;;;;;-0.98;68.02;98569.52;104741;1273;61060;-23
2022/02/20 05:19:44;;;;;;;2.60;1.30;;;;;;;-0.94;68.35;98571.21;104833;1271;61991;-23
2022/02/20 05:22:12;;;;;;;3.40;1.50;;;;;;;-0.20;67.26;98577.23;104820;1271;75229;-23
2022/02/20 05:24:46;;;;;;;7.80;1.80;;;;;;;0.47;65.13;98579.31;104822;1271;75763;-23
2022/02/20 05:27:14;;;;;;;4.60;2.00;;;;;;;0.66;64.65;98576.05;104872;1271;73630;-23
2022/02/20 05:29:43;;;;;;;4.70;1.60;;;;;;;0.52;64.03;98581.31;104823;1271;61148;-23
2022/02/20 05:32:23;;;;;;;4.60;1.60;;;;;;;0.24;64.57;98581.77;104806;1271;61816;-23
2022/02/20 05:35:19;;;;;;;4.70;1.70;;;;;;;-0.05;65.70;98573.70;104959;1271;75359;-23
2022/02/20 05:37:48;;;;;;;3.70;1.50;;;;;;;-0.22;66.23;98572.38;104656;1273;76224;-23
2022/02/20 05:40:22;;;;;;;5.20;1.90;;;;;;;-0.39;66.92;98569.91;104814;1271;73343;-24
2022/02/20 05:42:57;;;;;;;6.10;2.50;;;;;;;-0.45;67.12;98570.52;105018;1271;61145;-23
2022/02/20 05:45:28;;;;;;;4.00;1.60;;;;;;;-0.53;67.15;98565.73;105153;1271;61221;-23
2022/02/20 05:47:58;;;;;;;5.40;2.50;;;;;;;-0.61;67.31;98560.11;104931;1271;74558;-23
2022/02/20 05:50:28;;;;;;;6.80;2.10;;;;;;;-0.65;68.04;98559.63;104965;1271;75519;-23
2022/02/20 05:52:57;;;;;;;9.20;1.80;;;;;;;-0.68;68.42;98559.75;104796;1273;74657;-24
2022/02/20 05:55:28;;;;;;;4.90;1.60;;;;;;;-0.69;68.69;98555.35;104724;1273;61290;-23
2022/02/20 05:57:57;;;;;;;2.30;1.10;;;;;;;-0.65;68.85;98556.70;104885;1271;62433;-23
2022/02/20 06:00:39;;;;;;;4.90;1.50;;;;;;;0.10;67.86;98559.85;105002;1271;75311;-23
2022/02/20 06:03:08;;;;;;;2.60;1.40;;;;;;;0.80;65.89;98560.16;104797;1272;75957;-23
2022/02/20 06:05:41;;;;;;;6.40;2.00;;;;;;;0.97;65.11;98555.05;104799;1271;73126;-23
2022/02/20 06:08:24;;;;;;;5.30;1.90;;;;;;;0.88;65.01;98557.21;104969;1271;61118;-22
2022/02/20 06:11:03;;;;;;;5.40;1.90;;;;;;;0.76;65.30;98559.48;105027;1271;61042;-22
2022/02/20 06:13:51;;;;;;;4.80;1.80;;;;;;;0.65;65.64;98561.90;104734;1273;75460;-23
2022/02/20 06:16:59;;;;;;;6.70;2.00;;;;;;;0.56;66.07;98564.70;104888;1271;75101;-22
2022/02/20 06:19:40;;;;;;;4.40;2.20;;;;;;;0.55;66.19;98567.34;104870;1271;74503;-21
2022/02/20 06:22:22;;;;;;;6.40;2.60;;;;;;;0.58;65.96;98563.09;104827;1271;61242;-24
2022/02/20 06:25:10;;;;;;;4.50;2.50;;;;;;;0.61;66.10;98567.06;104969;1271;61143;-24
2022/02/20 06:27:50;;;;;;;4.50;1.60;;;;;;;0.63;65.85;98565.95;104811;1271;75130;-24
2022/02/20 06:30:25;;;;;;;4.40;2.10;;;;;;;0.67;65.87;98565.02;104842;1271;75952;-24
2022/02/20 06:32:53;;;;;;;4.20;3.00;;;;;;;0.70;65.73;98567.27;104712;1274;74703;-23
2022/02/20 06:35:23;;;;;;;5.20;2.20;;;;;;;0.79;65.28;98568.77;104780;1271;61156;-23
2022/02/20 06:37:55;;;;;;;4.40;1.90;;;;;;;0.90;64.98;98574.16;104830;1271;61023;-23
2022/02/20 06:40:24;;;;;;;4.80;2.30;;;;;;;1.02;64.40;98572.92;104832;1272;74524;-23
2022/02/20 06:42:55;;;;;;;8.50;2.30;;;;;;;1.15;63.88;98574.30;104739;1272;75938;-24
2022/02/20 06:45:26;;;;;;;5.40;2.30;;;;;;;1.27;63.72;98577.50;104962;1271;72226;-23
2022/02/20 06:48:00;;;;;;;5.80;1.70;;;;;;;1.38;63.07;98581.91;104872;1271;61668;-23
2022/02/20 06:50:38;;;;;;;6.60;2.20;;;;;;;1.51;62.66;98585.69;104806;1271;61115;-23
2022/02/20 06:53:25;;;;;;;4.80;1.80;;;;;;;1.62;61.67;98579.66;104789;1271;73321;-23
2022/02/20 06:56:21;;;;;;;4.40;1.80;;;;;;;1.75;61.09;98576.75;104634;1271;75046;-23
2022/02/20 06:58:49;;;;;;;3.10;1.80;;;;;;;1.85;60.41;98577.63;105167;1271;74452;-23
2022/02/20 07:01:18;;;;;;;6.10;2.20;;;;;;;1.93;60.53;98577.66;105064;1271;61147;-23
2022/02/20 07:03:47;;;;;;;7.90;2.80;;;;;;;2.05;60.67;98581.86;104827;1271;61035;-23
2022/02/20 07:06:15;;;;;;;8.20;2.10;;;;;;;2.16;59.62;98577.86;104839;1271;75600;-23
2022/02/20 07:08:44;;;;;;;11.50;2.80;;;;;;;2.26;59.05;98581.05;104843;1271;75904;-23
2022/02/20 07:11:27;;;;;;;6.20;2.00;;;;;;;2.38;58.22;98584.20;104778;1271;73464;-23
2022/02/20 07:13:56;;;;;;;6.00;2.80;;;;;;;2.49;57.90;98580.80;104808;1271;61563;-23
2022/02/20 07:16:24;;;;;;;5.40;2.10;;;;;;;2.66;57.73;98586.58;104838;1271;61131;-23
2022/02/20 07:18:53;;;;;;;4.20;2.20;;;;;;;2.85;56.41;98581.74;104809;1272;75814;-23
2022/02/20 07:21:24;;;;;;;5.40;2.00;;;;;;;3.03;55.86;98586.39;104967;1271;76382;-23
2022/02/20 07:23:52;;;;;;;4.90;2.30;;;;;;;3.20;55.47;98584.90;105067;1271;74414;-24
2022/02/20 07:26:21;;;;;;;6.40;2.50;;;;;;;3.34;55.18;98584.94;104925;1271;61111;-24
2022/02/20 07:28:49;;;;;;;6.60;2.50;;;;;;;3.48;54.57;98591.15;104929;1271;61028;-24
2022/02/20 07:31:18;;;;;;;4.50;2.10;;;;;;;3.64;54.33;98589.67;104966;1271;74497;-23
2022/02/20 07:33:47;;;;;;;4.80;2.20;;;;;;;3.67;53.06;98575.93;105027;1274;75750;-23
2022/02/20 07:36:15;;;;;;;4.40;2.30;;;;;;;3.69;53.45;98583.04;104691;1274;74414;-23
2022/02/20 07:38:44;;;;;;;6.90;2.30;;;;;;;3.85;52.72;98576.77;104699;1271;61255;-23
2022/02/20 07:41:12;;;;;;;5.20;2.50;;;;;;;4.11;52.80;98587.33;104832;1271;61058;-23
2022/02/20 07:43:44;;;;;;;6.50;2.20;;;;;;;4.36;51.52;98590.95;104845;1270;75391;-22
2022/02/20 07:46:13;;;;;;;7.90;2.10;;;;;;;4.43;51.05;98592.23;104926;1271;76207;-22
2022/02/20 07:48:45;;;;;;;6.50;2.40;;;;;;;4.54;51.02;98597.35;104700;1271;74390;-22
2022/02/20 07:51:14;;;;;;;4.90;2.00;;;;;;;4.72;51.09;98591.56;104691;1271;61322;-22
2022/02/20 07:53:43;;;;;;;7.80;2.50;;;;;;;4.85;50.40;98588.73;104780;1271;61080;-23
2022/02/20 07:56:12;;;;;;;4.00;2.20;;;;;;;4.86;49.87;98585.54;104795;1271;75573;-22
2022/02/20 07:58:42;;;;;;;8.70;2.70;;;;;;;4.88;50.39;98581.45;104792;1274;74601;-22
2022/02/20 08:01:10;;;;;;;7.00;2.20;;;;;;;5.08;50.05;98590.17;104982;1271;74356;-22
2022/02/20 08:03:39;;;;;;;7.70;2.70;;;;;;;5.11;49.73;98584.60;105144;1271;62150;-22
2022/02/20 08:06:08;;;;;;;9.00;2.60;;;;;;;5.21;49.94;98581.04;105159;1271;61031;-22
2022/02/20 08:08:37;;;;;;;6.30;2.50;;;;;;;5.24;48.99;98578.76;104854;1271;72490;-22
2022/02/20 08:11:05;;;;;;;3.70;1.30;;;;;;;5.26;49.01;98578.98;104823;1270;74954;-22
2022/02/20 08:13:35;;;;;;;7.80;2.50;;;;;;;5.14;48.92;98574.59;104777;1271;74321;-22
2022/02/20 08:16:04;;;;;;;5.40;1.90;;;;;;;5.11;49.37;98575.48;104779;1271;61124;-23
2022/02/20 08:18:33;;;;;;;6.80;2.30;;;;;;;4.95;49.21;98569.83;104741;1271;62467;-23
2022/02/20 08:21:02;;;;;;;2.80;1.50;;;;;;;5.01;49.57;98566.03;104861;1271;75373;-23
2022/02/20 08:23:46;;;;;;;5.20;2.10;;;;;;;5.16;48.74;98573.96;105060;1271;74732;-23
2022/02/20 08:26:15;;;;;;;6.10;1.80;;;;;;;5.29;48.45;98571.73;105100;1271;72702;-23
2022/02/20 08:28:44;;;;;;;8.00;2.30;;;;;;;5.50;47.46;98571.55;104797;1274;62102;-23
2022/02/20 08:31:12;;;;;;;7.10;2.00;;;;;;;5.72;47.72;98571.37;104792;1274;62065;-24
2022/02/20 08:33:41;;;;;;;7.30;2.30;;;;;;;5.77;47.36;98564.16;104802;1272;75489;-24
2022/02/20 08:36:16;;;;;;;2.10;1.10;;;;;;;5.72;47.41;98561.42;104825;1271;72558;-20
2022/02/20 08:38:44;;;;;;;7.10;2.40;;;;;;;5.65;47.75;98562.41;104707;1272;74491;-23
2022/02/20 08:41:13;;;;;;;3.80;1.80;;;;;;;5.99;47.66;98555.97;104787;1271;61931;-24
2022/02/20 08:43:41;;;;;;;3.80;1.50;;;;;;;6.30;46.45;98550.54;104768;1271;61070;-22
2022/02/20 08:46:10;;;;;;;7.50;2.00;;;;;;;6.40;45.93;98553.76;104975;1271;75700;-22
2022/02/20 08:48:40;;;;;;;6.10;2.20;;;;;;;6.34;45.82;98552.80;104883;1274;76040;-22
2022/02/20 08:51:08;;;;;;;6.50;2.70;;;;;;;6.34;45.60;98555.23;104788;1272;74596;-24
2022/02/20 08:53:38;;;;;;;8.60;2.00;;;;;;;6.53;45.14;98551.48;104812;1271;61148;-22
2022/02/20 08:56:07;;;;;;;8.80;1.80;;;;;;;6.69;45.15;98545.01;104769;1273;61934;-23
2022/02/20 08:58:35;;;;;;;8.30;2.80;;;;;;;6.87;44.53;98545.20;104793;1271;75662;-23
2022/02/20 09:01:04;;;;;;;6.10;1.90;;;;;;;7.14;44.53;98548.89;104765;1271;74947;-22
2022/02/20 09:03:33;;;;;;;7.20;2.30;;;;;;;7.35;43.93;98546.77;104929;1271;74419;-22
2022/02/20 09:06:02;;;;;;;6.20;1.50;;;;;;;7.51;43.42;98550.29;104912;1271;61292;-23
2022/02/20 09:08:31;;;;;;;4.40;1.60;;;;;;;7.63;43.05;98549.22;104821;1271;61102;-23
2022/02/20 09:11:00;;;;;;;6.10;1.90;;;;;;;7.65;42.11;98546.98;104861;1271;75544;-23
2022/02/20 09:13:29;;;;;;;4.40;2.10;;;;;;;7.71;42.23;98553.94;104728;1271;75981;-22
2022/02/20 09:15:58;;;;;;;2.90;1.30;;;;;;;7.68;41.63;98549.13;104817;1271;74444;-22
2022/02/20 09:18:26;;;;;;;4.00;1.60;;;;;;;7.51;41.92;98554.58;104782;1271;61817;-22
2022/02/20 09:20:54;;;;;;;5.00;1.70;;;;;;;7.68;40.75;98547.41;104780;1271;61062;-23
2022/02/20 09:23:23;;;;;;;2.20;1.10;;;;;;;7.26;40.85;98550.23;104799;1271;75586;-24
2022/02/20 09:25:52;;;;;;;3.70;1.20;;;;;;;7.19;41.44;98553.54;104946;1271;75973;-24
2022/02/20 09:28:21;;;;;;;2.80;1.50;;;;;;;7.22;41.27;98547.44;104823;1271;73372;-24
2022/02/20 09:30:49;;;;;;;2.30;1.10;;;;;;;7.33;40.67;98548.70;104808;1271;61151;-22
2022/02/20 09:33:18;;;;;;;4.30;1.60;;;;;;;7.28;41.28;98548.55;104839;1271;61070;-22
2022/02/20 09:35:48;;;;;;;2.60;1.00;;;;;;;6.94;41.67;98547.25;104761;1273;75834;-23
2022/02/20 09:38:17;;;;;;;2.00;0.80;;;;;;;6.62;42.61;98548.25;104864;1271;75895;-22
2022/02/20 09:40:45;;;;;;;4.30;1.90;;;;;;;6.52;43.17;98547.88;105118;1271;73430;-22
2022/02/20 09:43:15;;;;;;;2.60;1.20;;;;;;;6.76;43.53;98548.75;105164;1271;62068;-23
2022/02/20 09:45:48;;;;;;;6.60;1.80;;;;;;;7.21;43.09;98548.92;104895;1271;61219;-23
2022/02/20 09:48:16;;;;;;;4.60;1.90;;;;;;;7.43;42.31;98545.18;105123;1272;74564;-24
2022/02/20 09:50:45;;;;;;;4.10;1.40;;;;;;;7.17;42.06;98545.22;104844;1271;73973;-22
2022/02/20 09:53:26;;;;;;;7.20;1.30;;;;;;;6.78;42.36;98537.92;104800;1271;74404;-22
2022/02/20 09:55:55;;;;;;;2.80;1.40;;;;;;;6.77;43.09;98539.71;104722;1271;61417;-22
2022/02/20 09:58:23;;;;;;;5.50;1.80;;;;;;;6.88;43.04;98534.27;104821;1271;61194;-24
2022/02/20 10:01:10;;;;;;;15.50;1.90;;;;;;;7.10;42.32;98531.96;104776;1271;74504;-24
2022/02/20 10:03:40;;;;;;;2.80;1.10;;;;;;;7.24;42.45;98528.45;104646;1271;75998;-24
2022/02/20 10:06:10;;;;;;;6.10;1.50;;;;;;;7.06;42.48;98525.86;104726;1273;74661;-24
2022/02/20 10:08:46;;;;;;;1.90;1.20;;;;;;;6.86;42.94;98516.24;104845;1273;61144;-24
2022/02/20 10:11:15;;;;;;;5.50;1.70;;;;;;;6.57;43.01;98515.45;104849;1272;62659;-24
2022/02/20 10:13:47;;;;;;;5.70;2.10;;;;;;;6.25;43.59;98516.36;104761;1271;75652;-24
2022/02/20 10:16:26;;;;;;;3.80;1.30;;;;;;;6.08;44.47;98506.91;104690;1271;75916;-22
2022/02/20 10:19:02;;;;;;;3.60;1.50;;;;;;;6.11;44.50;98507.75;104811;1271;74615;-22
2022/02/20 10:21:50;;;;;;;4.40;2.10;;;;;;;6.11;44.61;98516.16;104906;1272;61139;-22
2022/02/20 10:24:59;;;;;;;4.90;2.10;;;;;;;6.12;44.36;98505.60;104730;1273;61265;-22
2022/02/20 10:28:18;;;;;;;6.90;1.50;;;;;;;6.15;43.95;98497.66;104959;1271;75512;-22
2022/02/20 10:30:50;;;;;;;3.20;1.20;;;;;;;6.09;43.72;98497.51;104829;1271;75978;-22
2022/02/20 10:33:24;;;;;;;4.00;1.40;;;;;;;6.05;43.81;98495.73;104859;1271;74488;-23
2022/02/20 10:35:54;;;;;;;;;;;;;;;6.03;43.52;98490.72;104985;1271;61179;-21
2022/02/20 10:38:41;;;;;;;2.20;1.40;;;;;;;6.13;43.47;98484.70;105046;1271;61062;-24
2022/02/20 10:41:10;;;;;;;3.40;1.20;;;;;;;6.08;43.03;98487.42;104851;1271;74563;-23
2022/02/20 10:43:40;;;;;;;2.30;1.10;;;;;;;5.90;43.67;98485.56;104834;1271;74929;-23
2022/02/20 10:46:16;;;;;;;4.20;1.20;;;;;;;5.81;44.48;98480.55;104770;1271;74480;-22
2022/02/20 10:48:49;;;;;;;2.20;1.20;;;;;;;5.85;44.05;98474.39;104629;1271;61046;-22
2022/02/20 10:51:18;;;;;;;2.40;1.30;;;;;;;5.67;44.30;98475.64;104811;1271;61003;-22
2022/02/20 10:53:51;;;;;;;5.20;1.50;;;;;;;5.68;44.75;98473.72;104800;1271;74103;-22
2022/02/20 10:56:19;;;;;;;6.40;1.80;;;;;;;5.70;45.16;98470.65;104702;1271;75560;-22
2022/02/20 10:58:49;;;;;;;5.00;1.70;;;;;;;5.69;44.76;98467.77;104804;1271;73676;-24
2022/02/20 11:01:22;;;;;;;4.60;1.70;;;;;;;5.63;44.07;98463.73;104783;1271;61086;-24
2022/02/20 11:03:59;;;;;;;3.30;1.40;;;;;;;5.65;44.58;98460.45;104767;1272;61125;-23
2022/02/20 11:06:31;;;;;;;3.80;1.50;;;;;;;5.68;45.11;98460.59;104704;1271;75640;-23
2022/02/20 11:09:01;;;;;;;1.50;0.80;;;;;;;5.72;44.07;98448.27;104871;1271;75507;-22
2022/02/20 11:11:36;;;;;;;3.50;1.60;;;;;;;5.64;43.88;98442.92;104805;1271;74459;-22
2022/02/20 11:14:11;;;;;;;1.90;1.10;;;;;;;5.72;43.99;98441.21;105128;1271;61079;-22
2022/02/20 11:16:50;;;;;;;3.20;1.50;;;;;;;5.68;43.72;98433.93;104890;1271;61914;-23
2022/02/20 11:19:22;;;;;;;4.10;1.50;;;;;;;5.72;43.83;98436.54;105077;1271;75579;-22
2022/02/20 11:21:52;;;;;;;5.00;1.60;;;;;;;5.69;43.30;98427.13;105025;1271;75834;-23
2022/02/20 11:24:21;;;;;;;5.20;2.10;;;;;;;5.58;43.23;98429.44;105118;1271;74467;-24
2022/02/20 11:26:50;;;;;;;4.60;1.70;;;;;;;5.58;43.95;98425.82;104884;1273;61292;-24
2022/02/20 11:29:19;;;;;;;5.90;2.00;;;;;;;5.55;43.82;98412.96;105090;1271;61885;-22
2022/02/20 11:31:47;;;;;;;4.20;1.40;;;;;;;5.54;44.50;98409.41;105108;1273;76364;-22
2022/02/20 11:34:16;;;;;;;2.30;1.10;;;;;;;5.47;42.98;98402.84;105119;1271;74279;-22
2022/02/20 11:36:52;;;;;;;1.30;0.90;;;;;;;5.38;42.95;98392.11;105146;1271;74305;-24
2022/02/20 11:39:21;;;;;;;2.70;1.20;;;;;;;5.29;43.52;98395.45;104816;1271;61000;-22
2022/02/20 11:42:10;;;;;;;3.40;2.00;;;;;;;5.20;42.92;98392.15;104882;1271;62205;-23
2022/02/20 11:44:52;;;;;;;3.40;0.80;;;;;;;5.16;42.91;98385.17;104696;1272;73540;-24
2022/02/20 11:47:38;;;;;;;4.70;1.50;;;;;;;5.16;43.48;98392.23;104737;1271;76207;-24
2022/02/20 11:50:13;;;;;;;10.20;1.70;;;;;;;5.22;44.08;98389.43;104805;1271;71295;-22
2022/02/20 11:52:51;;;;;;;2.80;1.10;;;;;;;5.26;44.41;98389.37;104783;1271;62916;-23
2022/02/20 11:55:35;;;;;;;5.80;1.80;;;;;;;5.29;44.29;98392.55;104784;1271;61093;-24
2022/02/20 11:58:23;;;;;;;7.90;1.50;;;;;;;5.32;43.99;98390.80;104772;1271;75457;-23